Time;durP1;ratioP1;P1;durP2;ratioP2;P2;SDS_P1;SDS_P2;PMS_P1;PMS_P2;Temp;Humidity;BMP_temperature;BMP_pressure;BME280_temperature;BME280_humidity;BME280_pressure;Samples;Min_cycle;Max_cycle;Signal;HPM_P1;HPM_P2
2022/08/14 00:01:45;;;;;;;3.25;2.95;;;;;;;17.20;58.22;97948.75;4943892;28;20048;-72
2022/08/14 00:04:22;;;;;;;3.05;2.78;;;;;;;17.20;57.80;97943.41;4918137;29;20423;-73
2022/08/14 00:07:04;;;;;;;3.88;3.17;;;;;;;17.18;57.53;97942.78;4921375;29;20054;-72
2022/08/14 00:09:34;;;;;;;6.60;2.97;;;;;;;17.19;56.87;97934.53;4917486;29;20082;-72
2022/08/14 00:12:21;;;;;;;4.47;3.00;;;;;;;17.15;57.36;97927.16;4922906;29;20043;-73
2022/08/14 00:14:51;;;;;;;3.92;3.33;;;;;;;17.11;57.60;97924.06;4926958;29;20183;-72
2022/08/14 00:17:21;;;;;;;3.88;3.50;;;;;;;17.09;57.74;97924.31;4927653;29;20154;-72
2022/08/14 00:19:49;;;;;;;3.50;3.20;;;;;;;17.05;58.15;97911.56;4921034;29;20143;-72
2022/08/14 00:22:19;;;;;;;3.40;3.10;;;;;;;17.03;58.03;97901.06;4920259;29;20052;-72
2022/08/14 00:25:06;;;;;;;3.25;2.88;;;;;;;17.01;58.55;97902.28;4915954;29;20047;-73
2022/08/14 00:27:33;;;;;;;3.85;3.53;;;;;;;16.98;57.50;97900.03;4923116;29;20045;-73
2022/08/14 00:30:09;;;;;;;3.58;3.13;;;;;;;16.95;58.16;97898.63;4927870;29;20043;-72
2022/08/14 00:32:37;;;;;;;3.78;3.05;;;;;;;16.91;58.62;97891.25;4925766;29;20526;-72
2022/08/14 00:35:23;;;;;;;6.40;3.13;;;;;;;17.08;59.18;97893.25;4918972;29;20120;-73
2022/08/14 00:38:11;;;;;;;3.63;3.33;;;;;;;16.96;58.29;97891.44;4915902;29;20058;-72
2022/08/14 00:40:38;;;;;;;4.05;3.20;;;;;;;16.87;59.02;97885.47;4919383;29;20131;-72
2022/08/14 00:43:12;;;;;;;4.72;3.20;;;;;;;16.79;58.23;97886.50;4917285;29;20113;-72
2022/08/14 00:45:41;;;;;;;3.92;3.50;;;;;;;16.76;59.13;97878.06;4925958;29;20135;-71
2022/08/14 00:48:09;;;;;;;4.90;3.38;;;;;;;16.72;59.13;97871.47;4919808;29;20076;-71
2022/08/14 00:50:36;;;;;;;3.70;3.40;;;;;;;16.68;59.18;97874.56;4924581;29;20099;-72
2022/08/14 00:53:03;;;;;;;3.53;3.22;;;;;;;16.66;59.46;97873.13;4926490;29;20040;-71
2022/08/14 00:55:40;;;;;;;4.00;3.15;;;;;;;16.62;59.44;97869.25;4918046;29;20052;-71
2022/08/14 01:00:59;;;;;;;6.30;3.60;;;;;;;16.54;59.70;97870.28;4919956;29;20051;-72
2022/08/14 01:03:30;;;;;;;4.20;3.72;;;;;;;16.50;60.15;97869.03;4926929;29;20039;-72
2022/08/14 01:05:58;;;;;;;3.95;3.58;;;;;;;16.45;60.02;97871.50;4925790;28;20533;-72
2022/08/14 01:08:28;;;;;;;4.22;3.80;;;;;;;16.53;60.81;97873.16;4921342;29;20063;-72
2022/08/14 01:11:14;;;;;;;5.18;3.58;;;;;;;16.29;60.10;97870.06;4915922;29;20443;-72
2022/08/14 01:13:45;;;;;;;7.32;4.10;;;;;;;16.14;61.30;97864.09;4921270;29;20047;-72
2022/08/14 01:16:23;;;;;;;4.38;3.88;;;;;;;16.04;61.87;97863.69;4911539;29;20141;-72
2022/08/14 01:21:42;;;;;;;7.28;3.78;;;;;;;15.85;61.21;97871.44;4930294;29;20055;-72
2022/08/14 01:24:14;;;;;;;5.07;3.78;;;;;;;15.79;62.27;97875.72;4928540;29;20039;-72
2022/08/14 01:26:54;;;;;;;5.13;4.35;;;;;;;15.73;63.18;97868.53;4921948;29;20040;-72
2022/08/14 01:29:21;;;;;;;4.28;3.72;;;;;;;15.59;62.66;97862.31;4921255;29;20119;-72
2022/08/14 01:32:08;;;;;;;4.57;4.07;;;;;;;15.60;62.88;97865.78;4915282;29;20056;-72
2022/08/14 01:34:36;;;;;;;4.13;3.72;;;;;;;15.58;62.87;97871.31;4927084;29;20043;-72
2022/08/14 01:37:23;;;;;;;4.20;3.83;;;;;;;15.75;62.99;97871.81;4922095;29;20039;-72
2022/08/14 01:39:51;;;;;;;4.50;4.10;;;;;;;15.68;62.39;97862.13;4917692;29;20080;-72
2022/08/14 01:42:20;;;;;;;4.78;3.92;;;;;;;15.62;62.56;97863.75;4925073;29;20416;-72
2022/08/14 01:45:04;;;;;;;5.30;4.10;;;;;;;15.53;63.26;97863.13;4920447;29;20139;-71
2022/08/14 01:47:31;;;;;;;4.05;3.70;;;;;;;15.54;62.90;97861.28;4920050;29;20454;-72
2022/08/14 01:50:05;;;;;;;4.17;3.60;;;;;;;15.51;63.39;97854.50;4920402;29;20060;-71
2022/08/14 01:52:34;;;;;;;4.13;3.72;;;;;;;15.50;62.92;97849.34;4915542;29;20047;-72
2022/08/14 01:55:22;;;;;;;4.75;4.28;;;;;;;15.39;62.77;97841.94;4923669;29;20494;-72
2022/08/14 01:57:49;;;;;;;5.93;3.85;;;;;;;15.28;63.34;97838.81;4927116;29;20115;-72
2022/08/14 02:00:38;;;;;;;4.50;3.65;;;;;;;15.19;63.98;97842.66;4918500;29;20063;-72
2022/08/14 02:03:05;;;;;;;5.38;4.05;;;;;;;15.14;64.18;97837.94;4918903;29;20055;-72
2022/08/14 02:05:33;;;;;;;7.03;4.10;;;;;;;15.22;64.97;97828.13;4917771;28;20056;-72
2022/08/14 02:08:01;;;;;;;6.30;4.15;;;;;;;15.50;63.95;97833.34;4927201;29;20035;-72
2022/08/14 02:10:36;;;;;;;5.07;4.40;;;;;;;15.32;63.28;97818.75;4926864;29;20058;-73
2022/08/14 02:13:17;;;;;;;4.43;4.03;;;;;;;15.20;64.33;97812.34;4926620;29;20509;-72
2022/08/14 02:15:45;;;;;;;4.18;3.78;;;;;;;15.14;64.52;97818.47;4925172;29;20507;-72
2022/08/14 02:18:15;;;;;;;5.15;4.25;;;;;;;15.04;64.60;97821.50;4922585;29;20043;-72
2022/08/14 02:20:44;;;;;;;4.55;3.90;;;;;;;15.07;65.03;97826.44;4917007;29;20056;-71
2022/08/14 02:23:12;;;;;;;4.70;4.30;;;;;;;15.25;65.32;97839.22;4924658;29;20054;-72
2022/08/14 02:25:41;;;;;;;5.05;3.55;;;;;;;15.22;64.17;97838.78;4921006;29;20083;-72
2022/08/14 02:28:08;;;;;;;5.80;4.03;;;;;;;15.10;64.61;97842.00;4929750;29;20036;-72
2022/08/14 02:30:55;;;;;;;5.97;4.25;;;;;;;15.17;65.24;97836.72;4923017;29;21192;-72
2022/08/14 02:33:23;;;;;;;4.57;3.92;;;;;;;15.09;64.18;97836.91;4925331;29;20051;-71
2022/08/14 02:35:55;;;;;;;5.95;3.90;;;;;;;14.94;64.52;97834.34;4921305;29;20079;-72
2022/08/14 02:38:30;;;;;;;5.78;4.00;;;;;;;14.73;65.10;97834.44;4917033;29;20048;-72
2022/08/14 02:41:01;;;;;;;4.20;3.80;;;;;;;14.60;65.81;97824.53;4914903;29;20044;-71
2022/08/14 02:43:35;;;;;;;4.10;3.67;;;;;;;14.49;66.64;97820.53;4914289;29;20048;-72
2022/08/14 02:46:12;;;;;;;6.28;4.25;;;;;;;14.42;66.76;97814.34;4921685;29;20040;-72
2022/08/14 02:48:46;;;;;;;6.78;4.25;;;;;;;14.40;67.20;97806.56;4937556;28;20504;-72
2022/08/14 02:51:34;;;;;;;6.38;3.97;;;;;;;14.43;67.25;97798.19;4919791;29;20144;-72
2022/08/14 02:54:07;;;;;;;4.30;3.90;;;;;;;14.50;67.11;97791.03;4916125;29;20104;-72
2022/08/14 02:56:37;;;;;;;4.97;3.88;;;;;;;14.49;66.54;97786.75;4917402;29;20419;-72
2022/08/14 02:59:30;;;;;;;4.20;3.80;;;;;;;14.49;66.65;97772.63;4931230;29;20058;-72
2022/08/14 03:02:00;;;;;;;4.70;4.20;;;;;;;14.48;66.54;97769.16;4927152;29;20692;-72
2022/08/14 03:04:29;;;;;;;5.20;4.20;;;;;;;14.58;65.97;97773.31;4921103;29;20044;-72
2022/08/14 03:06:57;;;;;;;8.25;4.43;;;;;;;14.47;66.63;97770.16;4916743;29;20443;-72
2022/08/14 03:09:35;;;;;;;5.65;4.18;;;;;;;14.48;66.67;97773.63;4920657;29;20051;-72
2022/08/14 03:12:22;;;;;;;6.43;4.10;;;;;;;14.73;66.84;97762.56;4917166;29;20431;-72
2022/08/14 03:15:09;;;;;;;7.80;4.68;;;;;;;14.92;66.32;97770.63;4925762;29;20056;-72
2022/08/14 03:17:42;;;;;;;9.27;5.28;;;;;;;14.96;66.52;97759.59;4924518;29;20040;-72
2022/08/14 03:20:24;;;;;;;7.93;5.30;;;;;;;14.77;65.39;97772.63;4922296;29;20507;-72
2022/08/14 03:22:51;;;;;;;5.72;4.90;;;;;;;14.61;65.83;97765.78;4919977;29;20048;-72
2022/08/14 03:25:20;;;;;;;7.07;4.80;;;;;;;14.57;65.75;97766.34;4914331;29;20044;-72
2022/08/14 03:27:47;;;;;;;5.18;4.63;;;;;;;14.41;66.50;97765.63;4915387;29;20776;-72
2022/08/14 03:30:26;;;;;;;5.13;4.65;;;;;;;14.30;67.21;97765.31;4916863;29;20467;-72
2022/08/14 03:33:12;;;;;;;8.90;4.10;;;;;;;14.28;67.13;97763.69;4918522;29;20067;-72
2022/08/14 03:35:40;;;;;;;5.38;4.78;;;;;;;14.25;67.06;97755.28;4926967;29;20044;-72
2022/08/14 03:38:29;;;;;;;4.60;4.13;;;;;;;14.21;67.51;97746.84;4932129;29;20052;-72
2022/08/14 03:41:22;;;;;;;4.53;4.13;;;;;;;14.20;67.64;97745.22;4933392;28;20052;-72
2022/08/14 03:43:54;;;;;;;4.93;4.43;;;;;;;14.18;68.04;97751.72;4920182;29;20075;-72
2022/08/14 03:46:29;;;;;;;6.03;4.05;;;;;;;14.19;68.22;97753.38;4918077;29;20044;-72
2022/08/14 03:49:19;;;;;;;5.70;4.70;;;;;;;14.16;68.23;97754.56;4927289;29;20153;-72
2022/08/14 03:51:54;;;;;;;5.38;4.88;;;;;;;14.14;67.71;97751.31;4931659;29;20515;-72
2022/08/14 03:54:23;;;;;;;4.97;4.50;;;;;;;14.10;67.42;97743.91;4929192;29;20043;-71
2022/08/14 03:56:50;;;;;;;5.28;4.70;;;;;;;14.06;67.53;97740.81;4916438;29;20442;-72
2022/08/14 03:59:18;;;;;;;5.07;4.53;;;;;;;13.98;67.44;97746.25;4925691;29;20040;-72
2022/08/14 04:01:48;;;;;;;7.60;4.50;;;;;;;13.93;68.51;97749.50;4927573;29;20122;-72
2022/08/14 04:04:29;;;;;;;6.43;4.45;;;;;;;14.03;68.72;97750.00;4925622;29;20066;-72
2022/08/14 04:06:58;;;;;;;5.32;4.03;;;;;;;14.03;68.23;97742.03;4925451;28;20082;-72
2022/08/14 04:09:25;;;;;;;4.63;4.22;;;;;;;14.01;68.85;97737.91;4929393;29;20067;-71
2022/08/14 04:11:53;;;;;;;6.00;4.25;;;;;;;13.97;68.38;97740.13;4923445;29;20096;-72
2022/08/14 04:14:22;;;;;;;8.77;5.18;;;;;;;13.97;68.49;97741.97;4922781;29;20051;-72
2022/08/14 04:16:49;;;;;;;4.47;4.15;;;;;;;14.04;69.08;97740.19;4937544;28;20503;-72
2022/08/14 04:19:18;;;;;;;5.30;4.80;;;;;;;14.11;68.20;97734.91;4926049;29;20104;-72
2022/08/14 04:21:45;;;;;;;6.68;4.85;;;;;;;14.07;68.00;97741.63;4929229;29;20514;-72
2022/08/14 04:24:31;;;;;;;4.95;4.55;;;;;;;14.14;67.99;97739.81;4927222;29;20052;-72
2022/08/14 04:27:09;;;;;;;5.72;4.50;;;;;;;14.11;68.21;97734.91;4923807;29;20054;-72
2022/08/14 04:29:40;;;;;;;5.13;4.60;;;;;;;14.01;68.50;97740.56;4929669;29;20048;-72
2022/08/14 04:32:11;;;;;;;6.03;4.50;;;;;;;13.96;68.16;97738.50;4918294;29;20052;-72
2022/08/14 04:34:59;;;;;;;5.35;4.88;;;;;;;13.95;68.97;97730.69;4923675;29;20693;-72
2022/08/14 04:46:15;;;;;;;5.43;4.97;;;;;;;14.22;68.06;97727.22;4924848;29;20059;-72
2022/08/14 04:49:03;;;;;;;8.10;5.13;;;;;;;14.32;67.25;97720.72;4925631;28;20040;-71
2022/08/14 04:51:33;;;;;;;8.77;4.47;;;;;;;14.37;67.17;97728.94;4916967;29;20063;-71
2022/08/14 04:54:12;;;;;;;7.43;4.50;;;;;;;14.45;67.46;97731.44;4918359;29;20134;-72
2022/08/14 04:56:42;;;;;;;5.00;4.40;;;;;;;14.49;66.97;97740.69;4921668;29;20092;-72
2022/08/14 04:59:10;;;;;;;6.65;4.03;;;;;;;14.58;67.06;97744.03;4931775;29;20048;-72
2022/08/14 05:01:43;;;;;;;4.80;4.32;;;;;;;14.58;66.74;97736.03;4918268;28;20044;-71
2022/08/14 05:04:17;;;;;;;5.82;4.72;;;;;;;14.58;66.07;97739.53;4918047;29;20139;-72
2022/08/14 05:06:47;;;;;;;5.28;4.78;;;;;;;14.68;65.66;97740.00;4919867;29;20056;-71
2022/08/14 05:09:15;;;;;;;4.97;4.47;;;;;;;14.65;66.35;97737.72;4920233;29;20148;-71
2022/08/14 05:11:43;;;;;;;5.30;4.82;;;;;;;14.73;66.18;97743.91;4917133;29;20074;-72
2022/08/14 05:14:11;;;;;;;6.28;4.93;;;;;;;14.83;65.72;97747.84;4928738;29;20055;-71
2022/08/14 05:16:58;;;;;;;5.82;4.70;;;;;;;14.90;65.74;97751.38;4924589;29;20411;-71
2022/08/14 05:19:28;;;;;;;4.95;4.55;;;;;;;14.97;65.08;97746.06;4928520;29;20503;-72
2022/08/14 05:21:59;;;;;;;5.13;4.63;;;;;;;15.06;64.39;97746.69;4923146;29;20111;-73
2022/08/14 05:24:49;;;;;;;4.97;4.47;;;;;;;15.06;65.56;97731.56;4921813;29;20097;-71
2022/08/14 05:27:19;;;;;;;5.97;4.38;;;;;;;15.21;63.99;97735.88;4919707;29;20048;-72
2022/08/14 05:29:54;;;;;;;4.55;4.22;;;;;;;15.26;64.54;97733.44;4916772;29;20044;-71
2022/08/14 05:32:23;;;;;;;4.50;4.20;;;;;;;15.44;64.75;97732.88;4925160;29;20407;-71
2022/08/14 05:34:56;;;;;;;4.80;4.35;;;;;;;15.60;63.49;97737.81;4932678;28;20058;-71
2022/08/14 05:37:23;;;;;;;4.03;3.63;;;;;;;15.72;62.31;97743.41;4915584;29;20092;-72
2022/08/14 05:39:52;;;;;;;4.35;3.95;;;;;;;15.74;62.98;97742.16;4918235;29;20059;-72
2022/08/14 05:42:18;;;;;;;4.75;3.60;;;;;;;15.90;63.16;97740.94;4913055;29;20047;-72
2022/08/14 05:44:53;;;;;;;5.57;4.30;;;;;;;16.04;63.58;97736.44;4920767;29;20128;-71
2022/08/14 05:47:21;;;;;;;4.32;3.92;;;;;;;16.26;62.72;97741.53;4932780;29;20075;-72
2022/08/14 05:49:49;;;;;;;4.63;4.15;;;;;;;16.40;61.94;97736.00;4926385;28;20051;-72
2022/08/14 05:52:17;;;;;;;5.05;3.70;;;;;;;16.58;62.02;97727.28;4921853;29;20147;-72
2022/08/14 05:55:06;;;;;;;6.30;3.63;;;;;;;16.76;60.84;97712.47;4916644;29;20060;-72
2022/08/14 05:57:33;;;;;;;4.40;4.00;;;;;;;16.80;61.28;97716.38;4914603;29;20457;-72
2022/08/14 06:00:00;;;;;;;3.97;3.67;;;;;;;16.92;60.95;97720.00;4916329;29;20048;-72
2022/08/14 06:02:31;;;;;;;6.85;3.80;;;;;;;17.04;61.12;97725.53;4929846;29;20102;-72
2022/08/14 06:05:01;;;;;;;4.53;3.95;;;;;;;17.30;59.60;97727.25;4918175;29;20052;-72
2022/08/14 06:07:28;;;;;;;4.72;3.85;;;;;;;17.46;59.41;97725.91;4915921;29;20051;-72
2022/08/14 06:09:55;;;;;;;4.32;3.80;;;;;;;17.62;58.90;97722.72;4911706;29;20064;-72
2022/08/14 06:12:28;;;;;;;4.00;3.65;;;;;;;17.55;57.36;97713.91;4919547;29;20118;-71
2022/08/14 06:15:14;;;;;;;7.50;3.67;;;;;;;17.47;58.52;97717.66;4920304;29;20044;-72
2022/08/14 06:17:49;;;;;;;3.88;3.50;;;;;;;17.40;59.68;97716.88;4920634;29;20090;-72
2022/08/14 06:20:26;;;;;;;4.13;3.33;;;;;;;17.41;59.17;97721.22;4923765;29;20115;-71
2022/08/14 06:22:54;;;;;;;3.92;3.60;;;;;;;17.48;58.51;97722.00;4924795;29;20043;-71
2022/08/14 06:25:22;;;;;;;3.80;3.40;;;;;;;17.50;59.01;97717.22;4927380;29;20052;-71
2022/08/14 06:27:50;;;;;;;4.00;3.33;;;;;;;17.61;57.25;97706.88;4911935;29;20051;-72
2022/08/14 06:30:19;;;;;;;5.22;3.70;;;;;;;17.66;57.58;97696.34;4920389;29;20047;-71
2022/08/14 06:32:46;;;;;;;4.18;3.25;;;;;;;17.70;59.02;97701.03;4919855;29;20036;-72
2022/08/14 06:35:19;;;;;;;5.15;3.15;;;;;;;17.87;56.88;97698.66;4920093;29;20079;-71
2022/08/14 06:37:50;;;;;;;4.68;3.15;;;;;;;18.03;56.31;97694.63;4927057;29;20047;-71
2022/08/14 06:40:20;;;;;;;4.18;3.53;;;;;;;18.21;56.80;97683.94;4925338;29;20040;-71
2022/08/14 06:42:58;;;;;;;3.28;2.97;;;;;;;18.33;57.12;97681.34;4921706;29;20051;-72
2022/08/14 06:45:29;;;;;;;3.80;3.45;;;;;;;18.37;56.69;97689.75;4912695;29;20511;-72
2022/08/14 06:47:55;;;;;;;4.38;3.60;;;;;;;18.64;55.56;97682.22;4912950;29;20070;-72
2022/08/14 06:50:26;;;;;;;3.58;3.28;;;;;;;18.81;55.09;97677.13;4913338;29;20048;-72
2022/08/14 06:52:57;;;;;;;3.40;3.10;;;;;;;18.88;54.09;97677.88;4920191;29;20528;-72
2022/08/14 06:55:24;;;;;;;3.33;3.03;;;;;;;18.63;55.88;97669.88;4923840;29;20047;-72
2022/08/14 06:57:55;;;;;;;8.27;3.67;;;;;;;18.66;56.24;97666.75;4922494;29;20173;-71
2022/08/14 07:00:25;;;;;;;3.85;3.10;;;;;;;18.79;55.64;97671.16;4916327;29;20128;-72
2022/08/14 07:05:47;;;;;;;5.07;3.67;;;;;;;18.98;55.12;97669.28;4916877;29;20567;-71
2022/08/14 07:08:28;;;;;;;3.63;3.33;;;;;;;19.11;54.46;97666.41;4934801;28;20051;-71
2022/08/14 07:11:02;;;;;;;3.15;2.85;;;;;;;19.10;54.72;97664.78;4930847;29;20098;-71
2022/08/14 07:13:30;;;;;;;3.78;2.80;;;;;;;19.20;55.02;97665.06;4927673;29;20142;-71
2022/08/14 07:15:58;;;;;;;3.22;2.90;;;;;;;19.27;53.80;97660.41;4925007;29;20051;-72
2022/08/14 07:18:28;;;;;;;3.42;2.90;;;;;;;19.37;54.44;97656.34;4918748;29;20047;-71
2022/08/14 07:20:57;;;;;;;6.57;2.97;;;;;;;19.48;53.81;97656.38;4918484;29;20095;-72
2022/08/14 07:23:25;;;;;;;6.40;2.95;;;;;;;19.73;53.24;97652.72;4920084;29;20059;-71
2022/08/14 07:25:54;;;;;;;2.95;2.67;;;;;;;20.00;51.64;97652.25;4927881;29;20524;-71
2022/08/14 07:28:23;;;;;;;3.85;2.70;;;;;;;20.17;51.96;97643.25;4931488;29;20047;-71
2022/08/14 07:30:55;;;;;;;4.35;3.00;;;;;;;20.44;51.31;97650.81;4929109;29;20415;-71
2022/08/14 07:33:22;;;;;;;3.25;2.80;;;;;;;20.64;48.93;97641.56;4924210;29;20056;-71
2022/08/14 07:35:57;;;;;;;3.78;2.30;;;;;;;20.76;50.76;97645.84;4918955;29;20245;-72
2022/08/14 07:38:26;;;;;;;3.50;2.92;;;;;;;20.81;50.21;97647.81;4921983;29;20047;-72
2022/08/14 07:41:01;;;;;;;2.80;2.60;;;;;;;20.84;49.45;97644.66;4919654;29;20442;-71
2022/08/14 07:43:28;;;;;;;3.13;2.72;;;;;;;20.85;50.11;97646.25;4929857;29;20047;-71
2022/08/14 07:45:55;;;;;;;3.42;2.50;;;;;;;21.09;49.84;97649.69;4921924;29;20044;-71
2022/08/14 07:48:22;;;;;;;3.42;2.65;;;;;;;21.11;49.98;97657.50;4926242;29;20599;-71
2022/08/14 07:50:51;;;;;;;2.85;2.38;;;;;;;21.40;49.15;97656.44;4921623;29;20095;-71
2022/08/14 07:53:21;;;;;;;3.55;2.40;;;;;;;21.60;48.42;97650.59;4921913;29;20135;-71
2022/08/14 07:55:48;;;;;;;2.55;2.35;;;;;;;21.86;47.24;97653.72;4921621;29;20144;-72
2022/08/14 07:58:37;;;;;;;3.85;2.50;;;;;;;21.92;46.93;97658.09;4922134;29;20048;-70
2022/08/14 08:01:17;;;;;;;;;;;;;;;22.03;46.97;97659.88;4927655;29;20047;-71
2022/08/14 08:03:48;;;;;;;2.70;2.50;;;;;;;22.20;47.30;97659.91;4925505;29;20034;-71
2022/08/14 08:06:22;;;;;;;3.72;2.53;;;;;;;22.27;46.28;97659.69;4924626;29;20507;-71
2022/08/14 08:08:51;;;;;;;5.38;2.50;;;;;;;22.35;45.77;97654.72;4902886;29;20185;-71
2022/08/14 08:11:32;;;;;;;2.38;2.25;;;;;;;22.74;44.45;97668.13;4925848;29;20183;-71
2022/08/14 08:14:05;;;;;;;2.60;2.38;;;;;;;23.07;43.94;97663.69;4923849;29;20058;-71
2022/08/14 08:16:45;;;;;;;3.85;2.25;;;;;;;23.17;43.40;97662.97;4923737;29;20048;-71
2022/08/14 08:19:12;;;;;;;4.88;2.28;;;;;;;23.40;43.20;97654.56;4924021;29;20400;-71
2022/08/14 08:21:40;;;;;;;2.50;2.30;;;;;;;23.66;41.59;97649.38;4924324;29;20054;-71
2022/08/14 08:24:11;;;;;;;8.75;2.42;;;;;;;23.86;41.57;97644.16;4923423;29;20048;-71
2022/08/14 08:26:44;;;;;;;2.85;2.05;;;;;;;24.03;41.00;97643.19;4917995;29;20043;-70
2022/08/14 08:29:18;;;;;;;2.78;2.40;;;;;;;24.00;41.48;97631.00;4920639;29;20141;-71
2022/08/14 08:31:49;;;;;;;3.92;1.98;;;;;;;24.36;41.42;97633.13;4920664;29;20111;-71
2022/08/14 08:34:18;;;;;;;2.92;2.00;;;;;;;24.82;39.80;97634.13;4925311;29;20459;-71
2022/08/14 08:36:49;;;;;;;2.30;2.10;;;;;;;25.12;38.38;97624.47;4922635;29;20066;-71
2022/08/14 08:39:15;;;;;;;2.78;2.30;;;;;;;25.09;38.66;97619.59;4921601;29;20127;-71
2022/08/14 08:41:48;;;;;;;4.10;2.50;;;;;;;25.33;38.26;97623.47;4918403;29;20463;-72
2022/08/14 08:44:19;;;;;;;4.25;2.10;;;;;;;25.43;39.04;97621.81;4920823;29;20102;-72
2022/08/14 08:47:04;;;;;;;2.70;2.13;;;;;;;25.55;36.93;97627.78;4919788;29;20119;-72
2022/08/14 08:49:41;;;;;;;2.22;2.03;;;;;;;25.83;35.67;97627.25;4924980;29;20031;-72
2022/08/14 08:52:24;;;;;;;4.15;2.25;;;;;;;25.72;37.44;97620.19;4928222;29;20534;-72
2022/08/14 08:54:57;;;;;;;2.40;2.17;;;;;;;25.95;36.06;97615.31;4923474;29;20059;-72
2022/08/14 08:57:26;;;;;;;4.03;2.00;;;;;;;26.18;36.14;97611.22;4917341;29;20135;-71
2022/08/14 08:59:53;;;;;;;6.13;2.55;;;;;;;26.55;34.18;97612.75;4919809;29;20043;-72
2022/08/14 09:02:24;;;;;;;2.47;2.00;;;;;;;26.17;36.79;97615.00;4924221;29;20044;-71
2022/08/14 09:05:00;;;;;;;2.70;2.42;;;;;;;25.57;37.15;97606.69;4920561;29;20079;-71
2022/08/14 09:07:27;;;;;;;2.65;2.45;;;;;;;26.17;34.20;97599.56;4925671;29;20159;-71
2022/08/14 09:09:56;;;;;;;3.25;2.08;;;;;;;26.24;35.92;97599.25;4924860;29;20053;-72
2022/08/14 09:12:27;;;;;;;2.47;2.17;;;;;;;26.62;36.10;97605.94;4927183;29;20048;-72
2022/08/14 09:15:08;;;;;;;2.95;2.28;;;;;;;27.00;33.95;97589.16;4930590;28;20095;-72
2022/08/14 09:17:39;;;;;;;3.28;2.55;;;;;;;26.86;33.98;97580.84;4918846;29;20402;-71
2022/08/14 09:20:08;;;;;;;2.47;2.28;;;;;;;26.96;34.79;97588.09;4919940;29;20095;-72
2022/08/14 09:22:40;;;;;;;2.33;2.10;;;;;;;27.28;33.29;97577.59;4920529;29;20687;-72
2022/08/14 09:25:15;;;;;;;2.80;2.35;;;;;;;26.82;33.40;97577.06;4925571;29;20055;-72
2022/08/14 09:27:42;;;;;;;2.70;2.42;;;;;;;26.51;34.58;97579.88;4924760;29;20040;-71
2022/08/14 09:30:09;;;;;;;3.10;2.45;;;;;;;26.68;35.01;97580.38;4920949;29;20051;-70
2022/08/14 09:33:02;;;;;;;4.10;2.55;;;;;;;26.56;34.47;97584.53;4919518;29;20526;-72
2022/08/14 09:36:00;;;;;;;3.63;2.35;;;;;;;27.04;33.92;97579.34;4921173;29;20079;-72
2022/08/14 09:38:37;;;;;;;2.53;2.33;;;;;;;27.00;34.47;97581.84;4921159;29;20119;-71
2022/08/14 09:41:17;;;;;;;3.50;2.72;;;;;;;26.93;34.22;97587.56;4934038;28;20044;-71
2022/08/14 09:43:55;;;;;;;5.75;2.47;;;;;;;26.80;34.22;97581.94;4924814;29;20044;-71
2022/08/14 09:46:26;;;;;;;2.63;2.42;;;;;;;27.23;33.82;97588.50;4920839;29;20056;-72
2022/08/14 09:49:12;;;;;;;2.95;2.75;;;;;;;27.13;33.19;97589.34;4902287;29;20123;-71
2022/08/14 09:51:42;;;;;;;2.58;2.45;;;;;;;26.93;34.13;97586.75;4911408;29;20104;-72
2022/08/14 09:54:17;;;;;;;7.68;2.50;;;;;;;27.14;34.01;97585.53;4917431;29;20048;-72
2022/08/14 09:56:49;;;;;;;;;;;;;;;27.04;33.57;97580.19;4923740;29;20050;-71
2022/08/14 09:59:26;;;;;;;3.63;2.33;;;;;;;27.46;33.25;97572.56;4918145;29;19923;-70
2022/08/14 10:01:55;;;;;;;4.60;3.05;;;;;;;27.15;34.17;97570.06;4923053;29;20044;-71
2022/08/14 10:04:27;;;;;;;3.00;2.65;;;;;;;27.52;32.13;97566.00;4918183;29;20063;-70
2022/08/14 10:07:02;;;;;;;4.20;2.97;;;;;;;27.81;32.38;97560.59;4917975;29;20175;-70
2022/08/14 10:09:29;;;;;;;4.43;2.70;;;;;;;27.15;33.54;97562.72;4918660;29;20614;-71
2022/08/14 10:11:59;;;;;;;4.55;2.92;;;;;;;27.02;33.92;97557.94;4923093;29;20044;-71
2022/08/14 10:14:31;;;;;;;2.92;2.60;;;;;;;26.94;33.62;97542.25;4924434;29;20047;-70
2022/08/14 10:17:03;;;;;;;5.13;2.92;;;;;;;27.13;33.11;97540.47;4924954;29;20052;-70
2022/08/14 10:19:35;;;;;;;2.85;2.60;;;;;;;27.23;32.90;97531.47;4925274;29;20462;-71
2022/08/14 10:22:11;;;;;;;3.33;2.78;;;;;;;27.00;33.30;97532.16;4915741;29;20084;-71
2022/08/14 10:25:08;;;;;;;2.75;2.55;;;;;;;26.97;32.99;97530.81;4916570;29;20044;-71
2022/08/14 10:27:35;;;;;;;3.03;2.40;;;;;;;27.29;32.68;97526.81;4918645;29;20040;-71
2022/08/14 10:30:16;;;;;;;4.18;2.65;;;;;;;27.23;32.97;97522.53;4923015;29;20058;-72
2022/08/14 10:32:48;;;;;;;2.92;2.65;;;;;;;27.06;33.08;97510.13;4920908;29;20040;-72
2022/08/14 10:35:18;;;;;;;5.07;2.40;;;;;;;27.10;32.46;97503.03;4924009;29;20545;-72
2022/08/14 10:37:50;;;;;;;5.03;3.00;;;;;;;27.24;32.54;97486.91;4920927;29;20122;-71
2022/08/14 10:40:29;;;;;;;3.42;2.60;;;;;;;27.50;31.64;97476.63;4916584;29;20082;-71
2022/08/14 10:43:24;;;;;;;2.72;2.53;;;;;;;27.66;32.00;97477.25;4918385;29;20047;-71
2022/08/14 10:46:00;;;;;;;5.35;3.00;;;;;;;27.31;31.96;97473.81;4941660;28;20055;-71
2022/08/14 10:49:01;;;;;;;2.88;2.67;;;;;;;27.09;32.36;97482.41;4926623;29;20443;-72
2022/08/14 10:51:33;;;;;;;3.20;2.90;;;;;;;27.10;31.95;97472.38;4927220;29;20056;-72
2022/08/14 10:54:07;;;;;;;5.07;2.45;;;;;;;27.32;32.54;97472.72;4924185;29;20126;-71
2022/08/14 10:56:54;;;;;;;4.88;3.08;;;;;;;27.37;32.02;97466.44;4922418;29;20679;-71
2022/08/14 10:59:23;;;;;;;3.72;3.00;;;;;;;27.50;31.25;97468.47;4923713;29;20075;-71
2022/08/14 11:01:58;;;;;;;4.05;2.60;;;;;;;27.77;30.69;97462.47;4922347;29;20052;-71
2022/08/14 11:04:27;;;;;;;3.45;2.80;;;;;;;27.32;31.43;97463.75;4924782;29;20048;-71
2022/08/14 11:06:56;;;;;;;3.55;2.63;;;;;;;27.40;32.00;97463.13;4924974;29;20123;-71
2022/08/14 11:09:23;;;;;;;3.40;3.10;;;;;;;27.25;31.68;97455.97;4925220;29;20048;-71
2022/08/14 11:11:55;;;;;;;3.85;2.92;;;;;;;27.34;32.29;97450.72;4921290;29;20099;-70
2022/08/14 11:15:01;;;;;;;6.30;3.35;;;;;;;27.24;32.87;97467.09;4922810;29;20108;-78
2022/08/14 11:17:32;;;;;;;2.90;2.70;;;;;;;27.17;32.43;97462.00;4918558;29;20051;-71
2022/08/14 11:20:01;;;;;;;5.25;3.10;;;;;;;27.18;32.57;97458.19;4928629;29;20042;-71
2022/08/14 11:22:30;;;;;;;3.33;2.70;;;;;;;27.36;32.31;97462.13;4928651;29;20107;-71
2022/08/14 11:25:17;;;;;;;3.75;2.97;;;;;;;27.67;32.19;97450.91;4929804;29;20407;-71
2022/08/14 11:27:45;;;;;;;4.90;3.33;;;;;;;27.49;31.35;97460.59;4924586;29;20047;-71
2022/08/14 11:30:16;;;;;;;3.25;2.95;;;;;;;27.44;32.00;97457.97;4924513;29;20456;-70
2022/08/14 11:33:03;;;;;;;3.25;2.92;;;;;;;27.49;32.08;97453.28;4920299;29;20055;-70
2022/08/14 11:35:31;;;;;;;3.42;3.13;;;;;;;27.44;31.41;97455.25;4930026;29;20613;-71
2022/08/14 11:38:13;;;;;;;3.40;3.17;;;;;;;27.43;31.44;97459.03;4927523;29;20051;-71
2022/08/14 11:40:43;;;;;;;3.20;2.90;;;;;;;27.47;32.13;97458.19;4918857;29;20108;-70
2022/08/14 11:43:14;;;;;;;2.78;2.58;;;;;;;27.68;32.36;97460.69;4932164;29;20048;-70
2022/08/14 11:45:46;;;;;;;4.13;2.80;;;;;;;27.84;31.54;97461.34;4919665;29;20056;-70
2022/08/14 11:48:17;;;;;;;3.33;3.03;;;;;;;27.68;31.64;97457.97;4920661;29;20154;-70
2022/08/14 11:51:22;;;;;;;3.03;2.83;;;;;;;27.53;32.18;97457.03;4918000;29;20048;-70
2022/08/14 11:53:55;;;;;;;4.05;3.05;;;;;;;27.55;32.58;97457.56;4927025;29;20054;-70
2022/08/14 11:56:23;;;;;;;2.92;2.72;;;;;;;27.44;31.52;97452.53;4925075;29;20120;-70
2022/08/14 11:58:54;;;;;;;3.45;3.15;;;;;;;27.50;31.89;97451.38;4924463;29;20047;-70
2022/08/14 12:01:27;;;;;;;2.80;2.60;;;;;;;27.47;32.12;97433.75;4917910;29;20051;-71
2022/08/14 12:03:57;;;;;;;3.50;3.20;;;;;;;27.44;31.36;97428.09;4917024;29;20043;-70
2022/08/14 12:06:27;;;;;;;4.38;2.92;;;;;;;27.49;30.55;97431.53;4926240;29;20050;-70
2022/08/14 12:09:05;;;;;;;3.10;2.80;;;;;;;27.67;32.00;97440.84;4922454;29;20094;-70
2022/08/14 12:11:40;;;;;;;3.38;2.78;;;;;;;27.65;31.07;97423.19;4934196;29;20036;-70
2022/08/14 12:14:14;;;;;;;3.38;3.08;;;;;;;28.09;30.62;97416.72;4920640;29;20048;-70
2022/08/14 12:17:08;;;;;;;3.65;3.35;;;;;;;28.12;29.93;97405.25;4921671;29;20062;-70
2022/08/14 12:19:43;;;;;;;3.83;3.22;;;;;;;27.99;30.71;97393.22;4921416;29;20051;-70
2022/08/14 12:22:10;;;;;;;3.58;3.22;;;;;;;27.71;30.73;97397.59;4921904;29;20384;-71